Al-Nwaiseeb, Kuwait

8:48 AM AST on August 01, 2014 (GMT +0300)
Kuwait International (OKBK) Elev 180 ft | 29.22 °N, 47.98 °E | Change Station

Current weather conditions updated 48 minutes ago

Clear
Clear
100 °F
Feels Like 100 °F
N
7
Wind Variable Wind from NW

Today is forecast to be Much Cooler than yesterday.

Today
High -- | Low -- °F
--% Chance of Precip.
Yesterday
High -- | Low -- °F
Precip. -- in
5:07 AM 6:36 PM
Waxing Crescent, 24% visible
Pressure 29.50 in
Visibility -9999.0 miles
Clouds
Dew Point 43 °F
Humidity 14%
Rainfall 0.00 in
Snow Depth Not available.
UV Not available.
Pollen Not available.
Air Quality Not available.
Flu Activity Not available.
METAR OKBK 010500Z 31006KT CAVOK 38/06 Q0999 NOSIG

More Conditions Fewer Conditions

Pressure 29.50 in
Visibility -9999.0 miles
Clouds
Dew Point 43 °F
Humidity 14%
Rainfall 0.00 in
Snow Depth Not available.
UV Not available.
Pollen Not available.
Air Quality Not available.
Flu Activity Not available.
METAR OKBK 010500Z 31006KT CAVOK 38/06 Q0999 NOSIG

More Conditions Fewer Conditions

10-Day Weather Forecast

Almanac

Astronomy

Aug. 01, 2014 Rise Set
Actual Time 5:07 AM AST 6:36 PM AST
Civil Twilight 4:42 AM AST 7:02 PM AST
Nautical Twilight 4:11 AM AST 7:32 PM AST
Astronomical Twilight 3:39 AM AST 8:04 PM AST
Moon 9:41 AM AST 9:39 PM AST
Length of Visible Light 14h 20m
Length of Day
13h 29m
Tomorrow will be 1m 16s shorter.
Waxing Crescent, 24% of the Moon is Illuminated
Today
Waxing Crescent
Aug 3
First Quarter
Aug 10
Full
Aug 17
Last Quarter
Aug 25
New

Yesterday's Extremes

Country Highs Country Lows

Community

WunderPhotos

Upload Photos

1,739,520 photos uploaded!

Nearby

Snow Depth

Not available.

Earthquake Activity

City Distance Mag. Time & Date
No recent earthquake activity has been reported nearby.
Minimum magnitude displayed is 2.5.

Coastal Water Temperatures

Place Temperature
No Stations Reporting

Nearby Weather Stations

There are no personal weather stations in this area.